Time;durP1;ratioP1;P1;durP2;ratioP2;P2;SDS_P1;SDS_P2;PMS_P1;PMS_P2;Temp;Humidity;BMP_temperature;BMP_pressure;BME280_temperature;BME280_humidity;BME280_pressure;Samples;Min_cycle;Max_cycle;Signal;HPM_P1;HPM_P2
2022/08/14 00:02:05;;;;;;;;;;;;;;;;;;5070824;28;786;-74
2022/08/14 00:04:32;;;;;;;;;;;;;;;;;;5053161;28;1136;-73
2022/08/14 00:06:58;;;;;;;;;;;;;;;;;;5070992;28;1312;-74
2022/08/14 00:09:24;;;;;;;;;;;;;;;;;;5070958;28;803;-73
2022/08/14 00:11:50;;;;;;;;;;;;;;;;;;5070484;28;1130;-73
2022/08/14 00:14:16;;;;;;;;;;;;;;;;;;5070526;28;1984;-73
2022/08/14 00:16:43;;;;;;;;;;;;;;;;;;5072088;28;1563;-73
2022/08/14 00:19:10;;;;;;;;;;;;;;;;;;5074866;28;1075;-73
2022/08/14 00:21:37;;;;;;;;;;;;;;;;;;5074560;28;865;-72
2022/08/14 00:24:04;;;;;;;;;;;;;;;;;;5056795;28;940;-73
2022/08/14 00:26:30;;;;;;;;;;;;;;;;;;5074830;28;1345;-72
2022/08/14 00:28:56;;;;;;;;;;;;;;;;;;5056741;28;1298;-72
2022/08/14 00:31:23;;;;;;;;;;;;;;;;;;5056015;28;1397;-73
2022/08/14 00:33:49;;;;;;;;;;;;;;;;;;5074616;28;1983;-73
2022/08/14 00:36:16;;;;;;;;;;;;;;;;;;5074331;28;1391;-73
2022/08/14 00:38:43;;;;;;;;;;;;;;;;;;5056756;28;1155;-73
2022/08/14 00:41:09;;;;;;;;;;;;;;;;;;5074342;28;1119;-73
2022/08/14 00:43:35;;;;;;;;;;;;;;;;;;5056695;28;1515;-73
2022/08/14 00:46:03;;;;;;;;;;;;;;;;;;5074388;28;1301;-73
2022/08/14 00:48:29;;;;;;;;;;;;;;;;;;5074028;28;1055;-73
2022/08/14 00:50:56;;;;;;;;;;;;;;;;;;5074263;28;925;-73
2022/08/14 00:53:24;;;;;;;;;;;;;;;;;;5073848;28;1913;-73
2022/08/14 00:55:50;;;;;;;;;;;;;;;;;;5074222;28;878;-74
2022/08/14 01:00:57;;;;;;;;;;;;;;;;;;5053401;28;1165;-73
2022/08/14 01:03:23;;;;;;;;;;;;;;;;;;5073522;28;957;-73
2022/08/14 01:05:50;;;;;;;;;;;;;;;;;;5074066;28;1127;-73
2022/08/14 01:08:17;;;;;;;;;;;;;;;;;;5055901;28;1490;-73
2022/08/14 01:10:50;;;;;;;;;;;;;;;;;;5074024;28;1086;-73
2022/08/14 01:13:19;;;;;;;;;;;;;;;;;;5073633;28;1921;-72
2022/08/14 01:15:46;;;;;;;;;;;;;;;;;;5073720;28;1075;-73
2022/08/14 01:21:03;;;;;;;;;;;;;;;;;;5073797;28;985;-73
2022/08/14 01:23:30;;;;;;;;;;;;;;;;;;5073594;28;873;-73
2022/08/14 01:25:57;;;;;;;;;;;;;;;;;;5073381;28;1320;-73
2022/08/14 01:28:26;;;;;;;;;;;;;;;;;;5072978;28;1083;-72
2022/08/14 01:30:54;;;;;;;;;;;;;;;;;;5055725;28;1211;-72
2022/08/14 01:33:21;;;;;;;;;;;;;;;;;;5072943;28;1980;-72
2022/08/14 01:35:47;;;;;;;;;;;;;;;;;;5055556;28;1219;-73
2022/08/14 01:38:13;;;;;;;;;;;;;;;;;;5073179;28;1292;-72
2022/08/14 01:40:41;;;;;;;;;;;;;;;;;;5073544;28;1016;-73
2022/08/14 01:43:10;;;;;;;;;;;;;;;;;;5073104;28;1114;-73
2022/08/14 01:45:36;;;;;;;;;;;;;;;;;;5073510;28;894;-73
2022/08/14 01:48:02;;;;;;;;;;;;;;;;;;5073112;28;1369;-73
2022/08/14 01:50:28;;;;;;;;;;;;;;;;;;5073277;28;1051;-73
2022/08/14 01:52:54;;;;;;;;;;;;;;;;;;5055320;28;1968;-72
2022/08/14 01:55:21;;;;;;;;;;;;;;;;;;5073240;28;933;-73
2022/08/14 01:57:48;;;;;;;;;;;;;;;;;;5055392;28;1310;-73
2022/08/14 02:00:15;;;;;;;;;;;;;;;;;;5073069;28;782;-72
2022/08/14 02:02:41;;;;;;;;;;;;;;;;;;5054579;28;1364;-72
2022/08/14 02:05:08;;;;;;;;;;;;;;;;;;5072966;28;1060;-73
2022/08/14 02:07:36;;;;;;;;;;;;;;;;;;5072562;28;1328;-73
2022/08/14 02:10:03;;;;;;;;;;;;;;;;;;5073008;28;874;-73
2022/08/14 02:12:30;;;;;;;;;;;;;;;;;;5069132;28;1914;-73
2022/08/14 02:14:59;;;;;;;;;;;;;;;;;;5054584;28;834;-73
2022/08/14 02:17:25;;;;;;;;;;;;;;;;;;5072584;28;1630;-73
2022/08/14 02:19:52;;;;;;;;;;;;;;;;;;5072276;28;1075;-73
2022/08/14 02:22:18;;;;;;;;;;;;;;;;;;5072299;28;762;-72
2022/08/14 02:24:45;;;;;;;;;;;;;;;;;;5054489;28;1120;-72
2022/08/14 02:27:11;;;;;;;;;;;;;;;;;;5072638;28;1310;-72
2022/08/14 02:29:39;;;;;;;;;;;;;;;;;;5072772;28;1071;-72
2022/08/14 02:32:09;;;;;;;;;;;;;;;;;;5072121;28;1088;-73
2022/08/14 02:34:35;;;;;;;;;;;;;;;;;;5072405;28;1981;-73
2022/08/14 02:37:03;;;;;;;;;;;;;;;;;;5054335;28;1387;-73
2022/08/14 02:39:30;;;;;;;;;;;;;;;;;;5071414;28;1114;-73
2022/08/14 02:41:56;;;;;;;;;;;;;;;;;;5066717;28;1126;-73
2022/08/14 02:44:22;;;;;;;;;;;;;;;;;;5052067;28;945;-73
2022/08/14 02:46:48;;;;;;;;;;;;;;;;;;5052057;28;1377;-73
2022/08/14 02:49:16;;;;;;;;;;;;;;;;;;5051946;28;1071;-72
2022/08/14 02:51:42;;;;;;;;;;;;;;;;;;5051869;28;1060;-72
2022/08/14 02:54:09;;;;;;;;;;;;;;;;;;5051849;28;1914;-73
2022/08/14 02:56:37;;;;;;;;;;;;;;;;;;5051759;28;1380;-73
2022/08/14 02:59:05;;;;;;;;;;;;;;;;;;5051908;28;1119;-73
2022/08/14 03:01:31;;;;;;;;;;;;;;;;;;5033760;28;1148;-72
2022/08/14 03:03:58;;;;;;;;;;;;;;;;;;5034314;28;1329;-73
2022/08/14 03:06:26;;;;;;;;;;;;;;;;;;5051546;28;1294;-72
2022/08/14 03:08:52;;;;;;;;;;;;;;;;;;5051692;28;889;-73
2022/08/14 03:11:20;;;;;;;;;;;;;;;;;;5051376;28;1064;-72
2022/08/14 03:13:47;;;;;;;;;;;;;;;;;;5051739;28;1914;-73
2022/08/14 03:16:13;;;;;;;;;;;;;;;;;;5051365;28;1396;-73
2022/08/14 03:18:41;;;;;;;;;;;;;;;;;;5051703;28;1056;-72
2022/08/14 03:21:07;;;;;;;;;;;;;;;;;;5051583;28;1080;-72
2022/08/14 03:23:35;;;;;;;;;;;;;;;;;;5052680;28;1219;-72
2022/08/14 03:26:02;;;;;;;;;;;;;;;;;;5051548;28;1391;-72
2022/08/14 03:28:28;;;;;;;;;;;;;;;;;;5051475;28;1075;-72
2022/08/14 03:30:56;;;;;;;;;;;;;;;;;;5033559;28;1147;-72
2022/08/14 03:33:22;;;;;;;;;;;;;;;;;;5050488;28;1914;-72
2022/08/14 03:35:50;;;;;;;;;;;;;;;;;;5051375;28;953;-72
2022/08/14 03:38:17;;;;;;;;;;;;;;;;;;5051069;28;1273;-73
2022/08/14 03:40:45;;;;;;;;;;;;;;;;;;5051470;28;1142;-73
2022/08/14 03:43:12;;;;;;;;;;;;;;;;;;5051014;28;1064;-72
2022/08/14 03:45:39;;;;;;;;;;;;;;;;;;5033489;28;1568;-73
2022/08/14 03:48:18;;;;;;;;;;;;;;;;;;5051168;28;1332;-72
2022/08/14 03:50:45;;;;;;;;;;;;;;;;;;5050803;28;988;-72
2022/08/14 03:53:12;;;;;;;;;;;;;;;;;;5050706;28;1966;-73
2022/08/14 03:55:39;;;;;;;;;;;;;;;;;;5051364;28;1316;-70
2022/08/14 03:58:07;;;;;;;;;;;;;;;;;;5051071;28;1425;-73
2022/08/14 04:00:33;;;;;;;;;;;;;;;;;;5051200;28;906;-72
2022/08/14 04:03:00;;;;;;;;;;;;;;;;;;5053023;28;1460;-72
2022/08/14 04:05:26;;;;;;;;;;;;;;;;;;5050821;28;1593;-72
2022/08/14 04:07:52;;;;;;;;;;;;;;;;;;5051093;28;1310;-72
2022/08/14 04:10:18;;;;;;;;;;;;;;;;;;5050925;28;1071;-73
2022/08/14 04:12:44;;;;;;;;;;;;;;;;;;5032836;28;1241;-72
2022/08/14 04:15:13;;;;;;;;;;;;;;;;;;5050945;28;1910;-72
2022/08/14 04:17:41;;;;;;;;;;;;;;;;;;5050957;28;1331;-72
2022/08/14 04:20:08;;;;;;;;;;;;;;;;;;5050888;28;1122;-72
2022/08/14 04:22:35;;;;;;;;;;;;;;;;;;5050851;28;1071;-72
2022/08/14 04:25:01;;;;;;;;;;;;;;;;;;5051006;28;1118;-72
2022/08/14 04:27:28;;;;;;;;;;;;;;;;;;5050704;28;1390;-72
2022/08/14 04:29:56;;;;;;;;;;;;;;;;;;5050867;28;799;-72
2022/08/14 04:32:26;;;;;;;;;;;;;;;;;;5050470;28;860;-72
2022/08/14 04:34:52;;;;;;;;;;;;;;;;;;5050636;28;1918;-71
2022/08/14 04:45:39;;;;;;;;;;;;;;;;;;5032491;28;965;-72
2022/08/14 04:48:12;;;;;;;;;;;;;;;;;;5050607;28;1376;-71
2022/08/14 04:50:38;;;;;;;;;;;;;;;;;;5050675;28;1142;-71
2022/08/14 04:53:04;;;;;;;;;;;;;;;;;;5057010;28;1430;-72
2022/08/14 04:55:31;;;;;;;;;;;;;;;;;;5052853;28;1914;-72
2022/08/14 04:57:58;;;;;;;;;;;;;;;;;;5056985;28;1443;-72
2022/08/14 05:00:26;;;;;;;;;;;;;;;;;;5070447;28;961;-72
2022/08/14 05:02:52;;;;;;;;;;;;;;;;;;5072411;28;882;-72
2022/08/14 05:05:20;;;;;;;;;;;;;;;;;;5055838;28;1131;-72
2022/08/14 05:07:46;;;;;;;;;;;;;;;;;;5074110;28;1403;-72
2022/08/14 05:10:13;;;;;;;;;;;;;;;;;;5067182;28;1250;-72
2022/08/14 05:12:39;;;;;;;;;;;;;;;;;;5043939;28;1361;-72
2022/08/14 05:15:06;;;;;;;;;;;;;;;;;;5065411;28;1910;-72
2022/08/14 05:17:32;;;;;;;;;;;;;;;;;;5076842;28;1410;-72
2022/08/14 05:20:01;;;;;;;;;;;;;;;;;;5076920;28;1364;-72
2022/08/14 05:22:29;;;;;;;;;;;;;;;;;;5071109;28;1500;-72
2022/08/14 05:24:55;;;;;;;;;;;;;;;;;;5064599;28;1699;-72
2022/08/14 05:27:22;;;;;;;;;;;;;;;;;;5087269;28;1483;-72
2022/08/14 05:29:48;;;;;;;;;;;;;;;;;;5081873;28;1123;-72
2022/08/14 05:32:14;;;;;;;;;;;;;;;;;;5061689;28;1408;-72
2022/08/14 05:34:40;;;;;;;;;;;;;;;;;;5069220;28;1919;-72
2022/08/14 05:37:07;;;;;;;;;;;;;;;;;;5081338;28;1585;-72
2022/08/14 05:39:34;;;;;;;;;;;;;;;;;;5087856;28;1813;-73
2022/08/14 05:42:01;;;;;;;;;;;;;;;;;;5070809;28;1469;-72
2022/08/14 05:44:27;;;;;;;;;;;;;;;;;;5085443;28;1798;-72
2022/08/14 05:46:53;;;;;;;;;;;;;;;;;;5087988;28;1321;-72
2022/08/14 05:49:20;;;;;;;;;;;;;;;;;;5091475;28;1052;-72
2022/08/14 05:51:46;;;;;;;;;;;;;;;;;;5073131;28;1111;-72
2022/08/14 05:54:12;;;;;;;;;;;;;;;;;;5072166;28;1950;-72
2022/08/14 05:56:39;;;;;;;;;;;;;;;;;;5073954;28;1388;-72
2022/08/14 05:59:06;;;;;;;;;;;;;;;;;;5078165;28;1810;-72
2022/08/14 06:01:32;;;;;;;;;;;;;;;;;;5072097;28;1691;-72
2022/08/14 06:03:58;;;;;;;;;;;;;;;;;;5051106;28;1443;-72
2022/08/14 06:06:24;;;;;;;;;;;;;;;;;;5057142;28;1868;-73
2022/08/14 06:08:50;;;;;;;;;;;;;;;;;;5063407;28;1396;-73
2022/08/14 06:11:17;;;;;;;;;;;;;;;;;;5069404;28;1494;-73
2022/08/14 06:13:44;;;;;;;;;;;;;;;;;;5078382;28;1480;-71
2022/08/14 06:16:10;;;;;;;;;;;;;;;;;;5078393;28;1914;-71
2022/08/14 06:18:36;;;;;;;;;;;;;;;;;;5072916;28;1102;-73
2022/08/14 06:21:03;;;;;;;;;;;;;;;;;;5067843;28;1815;-72
2022/08/14 06:23:29;;;;;;;;;;;;;;;;;;5075742;28;1441;-73
2022/08/14 06:25:55;;;;;;;;;;;;;;;;;;5073150;28;1505;-73
2022/08/14 06:28:22;;;;;;;;;;;;;;;;;;5066477;28;1497;-73
2022/08/14 06:30:49;;;;;;;;;;;;;;;;;;5049445;28;1560;-72
2022/08/14 06:33:16;;;;;;;;;;;;;;;;;;5069055;28;1329;-72
2022/08/14 06:35:42;;;;;;;;;;;;;;;;;;5090650;28;1967;-73
2022/08/14 06:38:09;;;;;;;;;;;;;;;;;;5076349;28;1726;-72
2022/08/14 06:40:36;;;;;;;;;;;;;;;;;;5072835;28;1541;-72
2022/08/14 06:43:03;;;;;;;;;;;;;;;;;;5079488;28;1168;-72
2022/08/14 06:45:30;;;;;;;;;;;;;;;;;;5072299;28;1223;-74
2022/08/14 06:47:57;;;;;;;;;;;;;;;;;;5090182;28;1423;-73
2022/08/14 06:50:25;;;;;;;;;;;;;;;;;;5051978;28;1864;-73
2022/08/14 06:52:52;;;;;;;;;;;;;;;;;;5071084;28;1434;-72
2022/08/14 06:55:18;;;;;;;;;;;;;;;;;;5081228;28;1914;-73
2022/08/14 06:57:45;;;;;;;;;;;;;;;;;;5058013;28;1763;-73
2022/08/14 07:00:12;;;;;;;;;;;;;;;;;;5073885;28;1307;-73
2022/08/14 07:08:25;;;;;;;;;;;;;;;;;;4991121;28;1322;-72
2022/08/14 07:10:52;;;;;;;;;;;;;;;;;;4987107;28;1956;-72
2022/08/14 07:13:18;;;;;;;;;;;;;;;;;;5033863;28;1398;-73
2022/08/14 07:15:46;;;;;;;;;;;;;;;;;;5075750;28;1918;-72
2022/08/14 07:18:12;;;;;;;;;;;;;;;;;;5072149;28;1732;-72
2022/08/14 07:20:40;;;;;;;;;;;;;;;;;;5065416;28;1181;-72
2022/08/14 07:23:07;;;;;;;;;;;;;;;;;;5091237;28;1063;-72
2022/08/14 07:25:34;;;;;;;;;;;;;;;;;;5091255;28;1071;-72
2022/08/14 07:28:00;;;;;;;;;;;;;;;;;;5079096;28;1404;-73
2022/08/14 07:30:26;;;;;;;;;;;;;;;;;;5056099;28;1490;-73
2022/08/14 07:32:52;;;;;;;;;;;;;;;;;;5070403;28;1506;-73
2022/08/14 07:35:19;;;;;;;;;;;;;;;;;;5076029;28;1914;-73
2022/08/14 07:37:48;;;;;;;;;;;;;;;;;;5084297;28;1593;-73
2022/08/14 07:40:14;;;;;;;;;;;;;;;;;;5066322;28;1153;-73
2022/08/14 07:42:41;;;;;;;;;;;;;;;;;;5051905;28;771;-73
2022/08/14 07:45:08;;;;;;;;;;;;;;;;;;5048580;28;1435;-73
2022/08/14 07:47:34;;;;;;;;;;;;;;;;;;5073160;28;1400;-73
2022/08/14 07:50:01;;;;;;;;;;;;;;;;;;5051234;28;1335;-73
2022/08/14 07:52:28;;;;;;;;;;;;;;;;;;5060391;28;1144;-73
2022/08/14 07:54:55;;;;;;;;;;;;;;;;;;5069363;28;1975;-73
2022/08/14 07:57:22;;;;;;;;;;;;;;;;;;5051547;28;1497;-74
2022/08/14 07:59:48;;;;;;;;;;;;;;;;;;5069522;28;960;-74
2022/08/14 08:02:15;;;;;;;;;;;;;;;;;;5069082;28;1114;-73
2022/08/14 08:04:42;;;;;;;;;;;;;;;;;;5069428;28;1063;-74
2022/08/14 08:07:08;;;;;;;;;;;;;;;;;;5069222;28;1388;-74
2022/08/14 08:09:34;;;;;;;;;;;;;;;;;;5068793;28;996;-74
2022/08/14 08:12:04;;;;;;;;;;;;;;;;;;5064661;28;1494;-74
2022/08/14 08:14:31;;;;;;;;;;;;;;;;;;5050888;28;1918;-75
2022/08/14 08:16:57;;;;;;;;;;;;;;;;;;5050995;28;1399;-74
2022/08/14 08:19:24;;;;;;;;;;;;;;;;;;5050776;28;942;-75
2022/08/14 08:21:50;;;;;;;;;;;;;;;;;;5050713;28;1122;-76
2022/08/14 08:24:16;;;;;;;;;;;;;;;;;;5050907;28;1103;-75
2022/08/14 08:26:43;;;;;;;;;;;;;;;;;;5050813;28;1297;-74
2022/08/14 08:29:10;;;;;;;;;;;;;;;;;;5050476;28;1001;-74
2022/08/14 08:31:45;;;;;;;;;;;;;;;;;;5059753;28;1621;-74
2022/08/14 08:34:12;;;;;;;;;;;;;;;;;;5073136;28;1243;-75
2022/08/14 08:36:39;;;;;;;;;;;;;;;;;;5051465;28;1922;-74
2022/08/14 08:39:06;;;;;;;;;;;;;;;;;;5040303;28;1400;-74
2022/08/14 08:41:39;;;;;;;;;;;;;;;;;;5079435;28;1397;-75
2022/08/14 08:44:05;;;;;;;;;;;;;;;;;;5083255;28;1338;-74
2022/08/14 08:46:33;;;;;;;;;;;;;;;;;;5067846;28;1499;-74
2022/08/14 08:48:59;;;;;;;;;;;;;;;;;;5084898;28;1311;-74
2022/08/14 08:51:27;;;;;;;;;;;;;;;;;;5081681;28;1481;-74
2022/08/14 08:53:56;;;;;;;;;;;;;;;;;;5091186;28;1228;-74
2022/08/14 08:56:33;;;;;;;;;;;;;;;;;;5085793;28;1910;-75
2022/08/14 08:58:59;;;;;;;;;;;;;;;;;;5055152;28;1549;-74
2022/08/14 09:01:27;;;;;;;;;;;;;;;;;;5069618;28;1388;-74
2022/08/14 09:04:02;;;;;;;;;;;;;;;;;;5079912;28;1282;-75
2022/08/14 09:06:28;;;;;;;;;;;;;;;;;;5075911;28;1495;-74
2022/08/14 09:08:55;;;;;;;;;;;;;;;;;;5073287;28;1455;-74
2022/08/14 09:11:22;;;;;;;;;;;;;;;;;;5078928;28;1423;-74
2022/08/14 09:13:49;;;;;;;;;;;;;;;;;;5075060;28;1521;-74
2022/08/14 09:16:15;;;;;;;;;;;;;;;;;;5087856;28;1910;-73
2022/08/14 09:18:41;;;;;;;;;;;;;;;;;;5070727;28;1208;-75
2022/08/14 09:21:08;;;;;;;;;;;;;;;;;;5076818;28;1462;-74
2022/08/14 09:23:35;;;;;;;;;;;;;;;;;;5072396;28;1430;-74
2022/08/14 09:26:01;;;;;;;;;;;;;;;;;;5078081;28;1852;-74
2022/08/14 09:28:27;;;;;;;;;;;;;;;;;;5085074;28;1232;-74
2022/08/14 09:30:54;;;;;;;;;;;;;;;;;;5080726;28;1454;-74
2022/08/14 09:33:33;;;;;;;;;;;;;;;;;;5068728;28;1172;-74
2022/08/14 09:36:07;;;;;;;;;;;;;;;;;;5059282;28;1914;-75
2022/08/14 09:38:45;;;;;;;;;;;;;;;;;;5085976;28;1427;-75
2022/08/14 09:41:13;;;;;;;;;;;;;;;;;;5092118;28;1157;-75
2022/08/14 09:43:43;;;;;;;;;;;;;;;;;;5079280;28;1214;-75
2022/08/14 09:46:09;;;;;;;;;;;;;;;;;;5091991;28;1410;-74
2022/08/14 09:48:36;;;;;;;;;;;;;;;;;;5074997;28;1170;-75
2022/08/14 09:51:04;;;;;;;;;;;;;;;;;;5088915;28;1466;-75
2022/08/14 09:53:36;;;;;;;;;;;;;;;;;;5060288;28;1395;-75
2022/08/14 09:56:03;;;;;;;;;;;;;;;;;;5081849;28;1914;-74
2022/08/14 09:58:35;;;;;;;;;;;;;;;;;;5059616;28;1486;-75
2022/08/14 10:01:07;;;;;;;;;;;;;;;;;;5064196;28;1434;-74
2022/08/14 10:03:34;;;;;;;;;;;;;;;;;;5073883;28;1850;-75
2022/08/14 10:06:04;;;;;;;;;;;;;;;;;;5079180;28;1495;-74
2022/08/14 10:08:39;;;;;;;;;;;;;;;;;;5078334;28;1548;-74
2022/08/14 10:11:18;;;;;;;;;;;;;;;;;;5075062;28;1564;-75
2022/08/14 10:13:44;;;;;;;;;;;;;;;;;;5062148;28;1501;-75
2022/08/14 10:16:12;;;;;;;;;;;;;;;;;;5075412;28;2388;-74
2022/08/14 10:18:39;;;;;;;;;;;;;;;;;;5075201;28;1627;-74
2022/08/14 10:21:07;;;;;;;;;;;;;;;;;;5081989;28;1723;-75
2022/08/14 10:23:42;;;;;;;;;;;;;;;;;;5077490;28;1798;-74
2022/08/14 10:26:08;;;;;;;;;;;;;;;;;;5068445;28;1552;-75
2022/08/14 10:28:41;;;;;;;;;;;;;;;;;;5079929;28;1687;-74
2022/08/14 10:31:15;;;;;;;;;;;;;;;;;;5063570;28;1582;-75
2022/08/14 10:33:42;;;;;;;;;;;;;;;;;;5079405;28;1125;-75
2022/08/14 10:36:08;;;;;;;;;;;;;;;;;;5072252;28;1910;-74
2022/08/14 10:38:35;;;;;;;;;;;;;;;;;;5058222;28;1831;-74
2022/08/14 10:41:12;;;;;;;;;;;;;;;;;;5082074;28;1596;-75
2022/08/14 10:43:40;;;;;;;;;;;;;;;;;;5080145;28;1086;-75
2022/08/14 10:46:11;;;;;;;;;;;;;;;;;;5090303;28;1308;-75
2022/08/14 10:48:37;;;;;;;;;;;;;;;;;;5062548;28;1959;-75
2022/08/14 10:51:04;;;;;;;;;;;;;;;;;;5059098;28;1307;-75
2022/08/14 10:53:31;;;;;;;;;;;;;;;;;;5052675;28;1616;-76
2022/08/14 10:55:59;;;;;;;;;;;;;;;;;;5083841;28;1921;-76
2022/08/14 10:58:27;;;;;;;;;;;;;;;;;;5074201;28;1133;-76
2022/08/14 11:00:55;;;;;;;;;;;;;;;;;;5080559;28;1833;-77
2022/08/14 11:03:22;;;;;;;;;;;;;;;;;;5073769;28;1784;-76
2022/08/14 11:05:49;;;;;;;;;;;;;;;;;;5069752;28;1340;-76
2022/08/14 11:08:18;;;;;;;;;;;;;;;;;;5068709;28;1846;-74
2022/08/14 11:10:45;;;;;;;;;;;;;;;;;;5082579;28;1239;-76
2022/08/14 11:13:15;;;;;;;;;;;;;;;;;;5076751;28;1183;-75
2022/08/14 11:15:41;;;;;;;;;;;;;;;;;;5033917;28;1902;-76
2022/08/14 11:18:10;;;;;;;;;;;;;;;;;;5051635;28;1310;-76
2022/08/14 11:20:37;;;;;;;;;;;;;;;;;;5051905;28;953;-75
2022/08/14 11:23:06;;;;;;;;;;;;;;;;;;5071955;28;1756;-76
2022/08/14 11:25:32;;;;;;;;;;;;;;;;;;5067830;28;1791;-76
2022/08/14 11:27:59;;;;;;;;;;;;;;;;;;5076221;28;1636;-76
2022/08/14 11:30:26;;;;;;;;;;;;;;;;;;5083918;28;1193;-76
2022/08/14 11:32:53;;;;;;;;;;;;;;;;;;5078189;28;1846;-76
2022/08/14 11:35:21;;;;;;;;;;;;;;;;;;5077856;28;1536;-76
2022/08/14 11:37:52;;;;;;;;;;;;;;;;;;5079679;28;1983;-76
2022/08/14 11:40:18;;;;;;;;;;;;;;;;;;5083347;28;1176;-76
2022/08/14 11:42:45;;;;;;;;;;;;;;;;;;5091496;28;856;-76
2022/08/14 11:45:11;;;;;;;;;;;;;;;;;;5052332;28;1845;-76
2022/08/14 11:47:37;;;;;;;;;;;;;;;;;;5067517;28;1826;-76
2022/08/14 11:50:11;;;;;;;;;;;;;;;;;;5067351;28;1517;-76
2022/08/14 11:52:38;;;;;;;;;;;;;;;;;;5066317;28;1827;-76
2022/08/14 11:55:07;;;;;;;;;;;;;;;;;;5066572;28;1643;-76
2022/08/14 11:57:35;;;;;;;;;;;;;;;;;;5051073;28;1977;-76
2022/08/14 12:00:02;;;;;;;;;;;;;;;;;;5069844;28;1811;-76
2022/08/14 12:02:30;;;;;;;;;;;;;;;;;;5076826;28;1577;-76
2022/08/14 12:04:56;;;;;;;;;;;;;;;;;;5076244;28;1233;-77
2022/08/14 12:07:23;;;;;;;;;;;;;;;;;;5091787;28;1317;-76
2022/08/14 12:09:54;;;;;;;;;;;;;;;;;;5090857;28;1766;-77
2022/08/14 12:12:21;;;;;;;;;;;;;;;;;;5075708;28;1530;-77
2022/08/14 12:14:48;;;;;;;;;;;;;;;;;;5081975;28;1782;-77
2022/08/14 12:17:14;;;;;;;;;;;;;;;;;;5054650;28;1906;-76
2022/08/14 12:19:45;;;;;;;;;;;;;;;;;;5074533;28;1172;-77
2022/08/14 12:22:11;;;;;;;;;;;;;;;;;;5064224;28;1533;-76
2022/08/14 12:24:37;;;;;;;;;;;;;;;;;;5089569;28;1106;-77
2022/08/14 12:27:05;;;;;;;;;;;;;;;;;;5092997;28;1841;-76
2022/08/14 12:29:31;;;;;;;;;;;;;;;;;;5076417;28;1527;-76
2022/08/14 12:31:58;;;;;;;;;;;;;;;;;;5078165;28;1484;-77
2022/08/14 12:34:29;;;;;;;;;;;;;;;;;;5075374;28;1106;-77
2022/08/14 12:37:02;;;;;;;;;;;;;;;;;;5077437;28;1977;-76
2022/08/14 12:39:28;;;;;;;;;;;;;;;;;;5076815;28;1778;-77
2022/08/14 12:42:05;;;;;;;;;;;;;;;;;;5082811;28;1489;-76
2022/08/14 12:44:33;;;;;;;;;;;;;;;;;;5060602;28;1141;-77
2022/08/14 12:47:08;;;;;;;;;;;;;;;;;;5076666;28;1408;-76
2022/08/14 12:49:34;;;;;;;;;;;;;;;;;;5074801;28;1775;-77
2022/08/14 12:52:01;;;;;;;;;;;;;;;;;;5080970;28;1561;-77
2022/08/14 12:54:28;;;;;;;;;;;;;;;;;;5089457;28;1208;-77
2022/08/14 12:57:02;;;;;;;;;;;;;;;;;;5094961;28;1906;-77
2022/08/14 12:59:29;;;;;;;;;;;;;;;;;;5066710;28;1841;-77
2022/08/14 13:01:56;;;;;;;;;;;;;;;;;;5059932;28;1353;-77
2022/08/14 13:04:23;;;;;;;;;;;;;;;;;;5074433;28;1296;-77
2022/08/14 13:06:50;;;;;;;;;;;;;;;;;;5055061;28;1787;-77
2022/08/14 13:09:16;;;;;;;;;;;;;;;;;;5084327;28;1153;-77
2022/08/14 13:11:44;;;;;;;;;;;;;;;;;;5072717;28;1784;-77
2022/08/14 13:14:11;;;;;;;;;;;;;;;;;;5085212;28;1564;-78
2022/08/14 13:16:37;;;;;;;;;;;;;;;;;;5088691;28;2113;-78
2022/08/14 13:19:04;;;;;;;;;;;;;;;;;;5063015;28;1774;-78
2022/08/14 13:21:31;;;;;;;;;;;;;;;;;;5073440;28;1884;-78
2022/08/14 13:23:57;;;;;;;;;;;;;;;;;;5083173;28;1478;-77
2022/08/14 13:26:24;;;;;;;;;;;;;;;;;;5075338;28;1314;-77
2022/08/14 13:28:50;;;;;;;;;;;;;;;;;;5076905;28;1137;-78
2022/08/14 13:31:17;;;;;;;;;;;;;;;;;;5075487;28;1386;-77
2022/08/14 13:33:43;;;;;;;;;;;;;;;;;;5064842;28;1298;-78
2022/08/14 13:36:11;;;;;;;;;;;;;;;;;;5067386;28;1914;-78
2022/08/14 13:38:40;;;;;;;;;;;;;;;;;;5052149;28;1326;-78
2022/08/14 13:41:07;;;;;;;;;;;;;;;;;;5053805;28;1473;-79
2022/08/14 13:43:33;;;;;;;;;;;;;;;;;;5083532;28;1414;-78
2022/08/14 13:45:59;;;;;;;;;;;;;;;;;;5093384;28;1484;-78
2022/08/14 13:48:26;;;;;;;;;;;;;;;;;;5079825;28;1702;-77
2022/08/14 13:50:54;;;;;;;;;;;;;;;;;;5087872;28;1426;-77
2022/08/14 13:53:21;;;;;;;;;;;;;;;;;;5055939;28;1231;-78
2022/08/14 13:55:47;;;;;;;;;;;;;;;;;;5075206;28;1306;-78
2022/08/14 13:58:14;;;;;;;;;;;;;;;;;;5077797;28;1989;-78
2022/08/14 14:00:40;;;;;;;;;;;;;;;;;;5073255;28;1755;-78
2022/08/14 14:03:07;;;;;;;;;;;;;;;;;;5086392;28;1394;-78
2022/08/14 14:05:35;;;;;;;;;;;;;;;;;;5073106;28;1309;-79
2022/08/14 14:08:02;;;;;;;;;;;;;;;;;;5079066;28;1342;-79
2022/08/14 14:10:29;;;;;;;;;;;;;;;;;;5079629;28;909;-78
2022/08/14 14:12:55;;;;;;;;;;;;;;;;;;5097664;28;1119;-79
2022/08/14 14:15:22;;;;;;;;;;;;;;;;;;5098719;28;836;-79
2022/08/14 14:17:48;;;;;;;;;;;;;;;;;;5098809;28;1906;-79
2022/08/14 14:20:15;;;;;;;;;;;;;;;;;;5099757;28;911;-79
2022/08/14 14:22:42;;;;;;;;;;;;;;;;;;5083415;28;1434;-78
2022/08/14 14:25:08;;;;;;;;;;;;;;;;;;5040459;28;1122;-78
2022/08/14 14:27:36;;;;;;;;;;;;;;;;;;5057444;28;1346;-78
2022/08/14 14:30:03;;;;;;;;;;;;;;;;;;5058002;28;1075;-79
2022/08/14 14:32:31;;;;;;;;;;;;;;;;;;5056770;28;1112;-78
2022/08/14 14:35:00;;;;;;;;;;;;;;;;;;5039990;28;1152;-78
2022/08/14 14:37:27;;;;;;;;;;;;;;;;;;5057309;28;1886;-78
2022/08/14 14:39:53;;;;;;;;;;;;;;;;;;5056476;28;1044;-78
2022/08/14 14:42:19;;;;;;;;;;;;;;;;;;5054792;28;1094;-78
2022/08/14 14:44:51;;;;;;;;;;;;;;;;;;5055156;28;779;-78
2022/08/14 14:47:20;;;;;;;;;;;;;;;;;;5056005;28;1322;-78
2022/08/14 14:49:48;;;;;;;;;;;;;;;;;;5056031;28;869;-78
2022/08/14 14:52:14;;;;;;;;;;;;;;;;;;5055961;28;1048;-78
2022/08/14 14:54:42;;;;;;;;;;;;;;;;;;5056505;28;1104;-78
2022/08/14 14:57:12;;;;;;;;;;;;;;;;;;5065061;28;1914;-78
2022/08/14 14:59:39;;;;;;;;;;;;;;;;;;5055024;28;1363;-78
2022/08/14 15:02:07;;;;;;;;;;;;;;;;;;5065722;28;1475;-77
2022/08/14 15:04:34;;;;;;;;;;;;;;;;;;5068585;28;1243;-78
2022/08/14 15:07:00;;;;;;;;;;;;;;;;;;5065059;28;1453;-77
2022/08/14 15:09:26;;;;;;;;;;;;;;;;;;5072726;28;1392;-77
2022/08/14 15:11:53;;;;;;;;;;;;;;;;;;5043622;28;1380;-78
2022/08/14 15:14:20;;;;;;;;;;;;;;;;;;5065686;28;1343;-78
2022/08/14 15:16:46;;;;;;;;;;;;;;;;;;5074394;28;1910;-78
2022/08/14 15:19:13;;;;;;;;;;;;;;;;;;5086342;28;1153;-77
2022/08/14 15:21:40;;;;;;;;;;;;;;;;;;5076329;28;1470;-77
2022/08/14 15:24:06;;;;;;;;;;;;;;;;;;5074794;28;1578;-77
2022/08/14 15:26:34;;;;;;;;;;;;;;;;;;5091154;22;3468;-78
2022/08/14 15:29:01;;;;;;;;;;;;;;;;;;5084269;28;1291;-76
2022/08/14 15:31:27;;;;;;;;;;;;;;;;;;5105059;28;1467;-77
2022/08/14 15:34:12;;;;;;;;;;;;;;;;;;5104900;28;1448;-77
2022/08/14 15:36:40;;;;;;;;;;;;;;;;;;5093192;28;1292;-76
2022/08/14 15:39:06;;;;;;;;;;;;;;;;;;5083372;28;1930;-77
2022/08/14 15:41:33;;;;;;;;;;;;;;;;;;5071217;28;1585;-74
2022/08/14 15:43:59;;;;;;;;;;;;;;;;;;5087318;28;1792;-75
2022/08/14 15:46:26;;;;;;;;;;;;;;;;;;5085458;28;1469;-75
2022/08/14 15:48:52;;;;;;;;;;;;;;;;;;5071924;28;1556;-75
2022/08/14 15:51:19;;;;;;;;;;;;;;;;;;5072720;28;1576;-74
2022/08/14 15:53:47;;;;;;;;;;;;;;;;;;5082557;28;1441;-76
2022/08/14 15:56:14;;;;;;;;;;;;;;;;;;5056317;28;1332;-76
2022/08/14 15:58:40;;;;;;;;;;;;;;;;;;5091172;28;1918;-76
2022/08/14 16:03:52;;;;;;;;;;;;;;;;;;5079350;28;1185;-76
2022/08/14 16:06:18;;;;;;;;;;;;;;;;;;5081520;28;1842;-76
2022/08/14 16:08:45;;;;;;;;;;;;;;;;;;5075776;28;1259;-76
2022/08/14 16:11:13;;;;;;;;;;;;;;;;;;5077447;28;1495;-75
2022/08/14 16:13:41;;;;;;;;;;;;;;;;;;5081772;28;1520;-76
2022/08/14 16:16:07;;;;;;;;;;;;;;;;;;5065096;28;1419;-75
2022/08/14 16:18:36;;;;;;;;;;;;;;;;;;5076529;28;1918;-76
2022/08/14 16:21:03;;;;;;;;;;;;;;;;;;5072849;28;1529;-76
2022/08/14 16:23:29;;;;;;;;;;;;;;;;;;5085497;28;1403;-76
2022/08/14 16:25:57;;;;;;;;;;;;;;;;;;5064983;28;1482;-73
2022/08/14 16:28:24;;;;;;;;;;;;;;;;;;5061031;28;1310;-75
2022/08/14 16:30:51;;;;;;;;;;;;;;;;;;5078750;28;1369;-75
2022/08/14 16:33:17;;;;;;;;;;;;;;;;;;5078848;28;1425;-75
2022/08/14 16:35:44;;;;;;;;;;;;;;;;;;5078137;28;1236;-75
2022/08/14 16:38:10;;;;;;;;;;;;;;;;;;5078036;28;2041;-76
2022/08/14 16:40:36;;;;;;;;;;;;;;;;;;5078370;28;1456;-76
2022/08/14 16:43:03;;;;;;;;;;;;;;;;;;5062057;28;1476;-76
2022/08/14 16:45:30;;;;;;;;;;;;;;;;;;5079306;28;1246;-75
2022/08/14 16:47:56;;;;;;;;;;;;;;;;;;5076802;28;1409;-77
2022/08/14 16:50:23;;;;;;;;;;;;;;;;;;5084932;28;1355;-75
2022/08/14 16:52:49;;;;;;;;;;;;;;;;;;5083287;28;1372;-76
2022/08/14 16:55:16;;;;;;;;;;;;;;;;;;5076710;28;1537;-75
2022/08/14 16:57:48;;;;;;;;;;;;;;;;;;5077292;28;1976;-75
2022/08/14 17:00:26;;;;;;;;;;;;;;;;;;5072451;28;1457;-74
2022/08/14 17:02:58;;;;;;;;;;;;;;;;;;5082135;28;1088;-75
2022/08/14 17:05:25;;;;;;;;;;;;;;;;;;5085387;28;1444;-74
2022/08/14 17:08:08;;;;;;;;;;;;;;;;;;5080152;28;1491;-74
2022/08/14 17:10:34;;;;;;;;;;;;;;;;;;5085012;28;1680;-75
2022/08/14 17:13:15;;;;;;;;;;;;;;;;;;5080693;28;1740;-75
2022/08/14 17:15:41;;;;;;;;;;;;;;;;;;5071937;28;1791;-75
2022/08/14 17:18:09;;;;;;;;;;;;;;;;;;5082988;28;1902;-77
2022/08/14 17:20:35;;;;;;;;;;;;;;;;;;5093325;28;1074;-76
2022/08/14 17:23:02;;;;;;;;;;;;;;;;;;5093988;28;701;-77
2022/08/14 17:25:29;;;;;;;;;;;;;;;;;;5094011;28;1087;-73
2022/08/14 17:28:08;;;;;;;;;;;;;;;;;;5088349;28;1779;-76
2022/08/14 17:30:47;;;;;;;;;;;;;;;;;;5082098;28;1252;-76